Time;durP1;ratioP1;P1;durP2;ratioP2;P2;SDS_P1;SDS_P2;PMS_P1;PMS_P2;Temp;Humidity;BMP_temperature;BMP_pressure;BME280_temperature;BME280_humidity;BME280_pressure;Samples;Min_cycle;Max_cycle;Signal;HPM_P1;HPM_P2
2022/01/30 00:01:09;;;;;;;;;66.67;50.00;;;;;2.35;72.40;100903.84;4976558;28;45464;-89
2022/01/30 00:03:34;;;;;;;;;67.33;54.00;;;;;2.29;72.10;100900.25;4976832;28;45402;-89
2022/01/30 00:06:00;;;;;;;;;63.33;45.67;;;;;2.19;72.52;100901.75;4977151;28;46675;-89
2022/01/30 00:08:26;;;;;;;;;65.33;52.33;;;;;2.13;72.66;100901.66;4992443;28;45482;-89
2022/01/30 00:10:58;;;;;;;;;41.33;31.33;;;;;2.12;73.05;100906.81;4979100;28;45451;-90
2022/01/30 00:13:26;;;;;;;;;71.75;52.50;;;;;2.13;73.04;100901.66;4994460;28;45493;-89
2022/01/30 00:15:53;;;;;;;;;76.33;53.67;;;;;2.07;72.84;100898.88;4977603;28;45443;-89
2022/01/30 00:18:46;;;;;;;;;64.00;49.33;;;;;1.96;73.39;100887.38;4977552;28;45178;-89
2022/01/30 00:21:37;;;;;;;;;63.50;52.25;;;;;1.87;73.14;100889.75;4980192;28;45460;-88
2022/01/30 00:24:18;;;;;;;;;67.00;49.00;;;;;1.79;73.35;100887.00;4976909;28;45573;-89
2022/01/30 00:26:46;;;;;;;;;60.75;46.75;;;;;1.74;73.77;100889.47;4992475;28;46992;-89
2022/01/30 00:29:12;;;;;;;;;67.00;50.33;;;;;1.68;74.19;100891.91;4991793;28;45364;-88
2022/01/30 00:31:38;;;;;;;;;70.75;53.00;;;;;1.64;74.33;100897.03;4977286;28;45428;-89
2022/01/30 00:34:04;;;;;;;;;58.00;43.25;;;;;1.59;74.23;100901.22;4992297;28;45369;-88
2022/01/30 00:36:31;;;;;;;;;64.50;46.50;;;;;1.53;74.50;100888.94;4976023;28;47703;-89
2022/01/30 00:38:57;;;;;;;;;67.75;52.50;;;;;1.52;74.52;100894.97;4990076;28;45693;-89
2022/01/30 00:41:22;;;;;;;;;71.50;52.75;;;;;1.50;75.00;100901.88;4971133;28;45318;-88
2022/01/30 00:43:48;;;;;;;;;62.25;44.25;;;;;1.48;75.18;100895.78;4991837;28;45233;-88
2022/01/30 00:46:13;;;;;;;;;65.00;48.33;;;;;1.49;74.81;100881.06;4995007;28;46590;-87
2022/01/30 00:48:38;;;;;;;;;62.75;47.25;;;;;1.54;75.13;100880.31;4996642;28;45384;-87
2022/01/30 00:51:04;;;;;;;;;66.33;50.67;;;;;1.57;74.68;100872.59;5006397;28;45308;-87
2022/01/30 00:53:29;;;;;;;;;68.50;52.25;;;;;1.60;74.76;100874.38;5008815;28;45172;-88
2022/01/30 00:55:55;;;;;;;;;76.33;51.33;;;;;1.62;74.72;100880.50;4990422;28;48570;-86
2022/01/30 00:58:20;;;;;;;;;60.33;46.67;;;;;1.64;74.61;100879.72;4992554;28;44636;-86
2022/01/30 01:00:46;;;;;;;;;60.67;46.33;;;;;1.67;74.40;100878.91;4988181;28;45352;-88
2022/01/30 01:03:11;;;;;;;;;59.00;48.33;;;;;1.68;74.48;100872.84;4977837;28;45209;-89
2022/01/30 01:05:38;;;;;;;;;66.00;49.25;;;;;1.69;74.58;100867.69;4993605;28;46951;-89
2022/01/30 01:08:16;;;;;;;;;68.00;52.50;;;;;1.70;74.63;100868.56;4992756;28;45261;-89
2022/01/30 01:10:49;;;;;;;;;69.25;53.00;;;;;1.70;74.67;100872.03;4976214;28;45502;-89
2022/01/30 01:23:44;;;;;;;;;65.00;51.50;;;;;1.88;74.70;100858.59;4963647;28;45430;-89
2022/01/30 01:26:11;;;;;;;;;69.25;54.25;;;;;1.89;74.35;100859.47;4975627;28;47653;-90
2022/01/30 01:28:37;;;;;;;;;72.00;53.00;;;;;1.90;74.27;100848.22;4992278;28;45589;-89
2022/01/30 01:31:04;;;;;;;;;76.50;57.50;;;;;1.91;74.36;100850.84;4977410;28;45309;-89
2022/01/30 01:34:04;;;;;;;;;74.50;56.25;;;;;1.95;74.06;100849.22;4975569;28;45520;-89
2022/01/30 01:36:15;;;;;;;;;66.25;51.75;;;;;1.98;73.84;100854.47;4977917;28;45530;-90
2022/01/30 01:38:41;;;;;;;;;74.75;52.25;;;;;2.01;74.01;100846.75;4992810;28;45339;-88
2022/01/30 01:41:06;;;;;;;;;73.00;53.00;;;;;2.03;73.93;100843.31;4977483;28;45365;-89
2022/01/30 01:43:32;;;;;;;;;64.67;46.67;;;;;2.07;73.72;100844.28;4993176;28;45454;-88
2022/01/30 01:45:59;;;;;;;;;64.50;52.00;;;;;2.11;73.63;100851.31;4977557;28;45482;-88
2022/01/30 01:48:25;;;;;;;;;74.50;55.50;;;;;2.12;73.34;100845.25;4991529;28;45441;-88
2022/01/30 01:51:05;;;;;;;;;65.00;49.67;;;;;2.12;73.76;100840.06;4975004;28;45321;-89
2022/01/30 01:53:31;;;;;;;;;65.75;47.75;;;;;2.15;73.24;100842.72;4991129;28;45424;-87
2022/01/30 01:55:57;;;;;;;;;65.25;51.00;;;;;2.14;73.28;100840.09;4984493;28;47997;-88
2022/01/30 01:58:24;;;;;;;;;65.75;52.50;;;;;2.12;73.20;100829.66;4991059;28;45552;-89
2022/01/30 02:00:50;;;;;;;;;72.25;52.75;;;;;2.12;73.19;100829.66;4974799;28;45564;-88
2022/01/30 02:03:17;;;;;;;;;70.00;54.00;;;;;2.13;73.27;100825.31;4976387;28;45414;-88
2022/01/30 02:05:49;;;;;;;;;73.25;52.75;;;;;2.13;73.54;100814.91;4976442;28;45570;-88
2022/01/30 02:14:33;;;;;;;;;68.00;53.00;;;;;2.15;73.44;100808.91;4935353;28;45400;-89
2022/01/30 02:27:42;;;;;;;;;76.00;54.50;;;;;2.16;73.05;100801.97;4976251;28;45328;-89
2022/01/30 02:30:13;;;;;;;;;61.33;49.33;;;;;2.12;72.93;100797.56;4991266;28;45305;-89
2022/01/30 02:32:39;;;;;;;;;65.50;49.25;;;;;2.13;73.08;100800.19;4991407;28;45345;-89
2022/01/30 02:35:05;;;;;;;;;72.25;52.50;;;;;2.13;72.96;100795.00;4991005;28;45534;-89
2022/01/30 02:37:30;;;;;;;;;71.25;54.50;;;;;2.10;73.13;100802.72;4990725;28;46856;-90
2022/01/30 02:39:56;;;;;;;;;70.75;56.00;;;;;2.07;72.88;100800.94;4974714;28;45422;-88
2022/01/30 02:42:25;;;;;;;;;74.00;55.75;;;;;2.03;72.67;100796.50;4976668;28;45300;-89
2022/01/30 02:44:57;;;;;;;;;68.00;53.33;;;;;2.01;72.98;100797.34;4992034;28;45476;-88
2022/01/30 02:47:38;;;;;;;;;69.00;54.33;;;;;1.99;73.00;100793.81;4973988;28;46937;-88
2022/01/30 02:50:33;;;;;;;;;66.00;49.67;;;;;1.98;72.83;100786.88;4990481;28;45487;-89
2022/01/30 02:53:01;;;;;;;;;73.75;54.50;;;;;1.95;72.53;100792.88;4990422;28;45488;-89
2022/01/30 02:55:26;;;;;;;;;72.33;52.67;;;;;1.94;72.91;100787.63;4992753;28;45311;-89
2022/01/30 02:57:52;;;;;;;;;71.67;52.33;;;;;1.91;72.89;100772.84;4993689;28;47486;-89
2022/01/30 03:00:18;;;;;;;;;72.25;53.50;;;;;1.88;73.07;100771.88;4994192;28;45424;-89
2022/01/30 03:02:43;;;;;;;;;75.25;52.50;;;;;1.86;73.05;100769.25;4994470;28;45472;-89
2022/01/30 03:05:09;;;;;;;;;67.50;51.00;;;;;1.86;73.17;100770.97;4994405;28;45493;-89
2022/01/30 03:07:35;;;;;;;;;70.50;54.50;;;;;1.85;73.13;100757.09;4994045;28;47993;-88
2022/01/30 03:10:01;;;;;;;;;71.50;53.00;;;;;1.85;73.23;100757.09;4978970;28;45259;-89
2022/01/30 03:12:26;;;;;;;;;72.00;54.75;;;;;1.86;73.36;100766.66;4993280;28;45221;-88
2022/01/30 03:14:52;;;;;;;;;69.00;52.00;;;;;1.84;73.56;100749.28;4990752;28;45615;-87
2022/01/30 03:17:17;;;;;;;;;71.75;51.00;;;;;1.85;73.37;100757.09;4976804;28;47837;-88
2022/01/30 03:19:43;;;;;;;;;71.75;53.25;;;;;1.87;73.48;100751.94;4994224;28;45718;-88
2022/01/30 03:22:08;;;;;;;;;144.25;116.75;;;;;1.87;74.31;100747.63;4993814;28;45298;-88
2022/01/30 03:24:35;;;;;;;;;73.25;53.50;;;;;1.92;73.74;100753.78;4993581;28;45676;-88
2022/01/30 03:27:01;;;;;;;;;68.00;52.00;;;;;1.92;73.06;100750.31;4993098;28;46850;-88
2022/01/30 03:29:26;;;;;;;;;68.75;51.50;;;;;1.90;73.42;100741.59;4993568;28;45394;-89
2022/01/30 03:31:52;;;;;;;;;69.25;52.25;;;;;1.90;73.51;100747.69;4993529;28;45307;-88
2022/01/30 03:34:17;;;;;;;;;74.25;53.25;;;;;1.91;72.94;100753.75;4976699;28;45473;-89
2022/01/30 03:36:43;;;;;;;;;70.00;53.50;;;;;1.92;73.38;100752.91;4993388;28;46784;-88
2022/01/30 03:39:08;;;;;;;;;69.75;49.75;;;;;1.92;73.20;100753.78;4993617;28;45467;-88
2022/01/30 03:41:34;;;;;;;;;72.75;57.00;;;;;1.94;73.37;100752.09;4993372;28;45579;-89
2022/01/30 03:43:59;;;;;;;;;72.50;54.75;;;;;1.94;73.37;100751.22;4993378;28;45565;-89
2022/01/30 03:46:26;;;;;;;;;70.25;48.50;;;;;1.93;73.43;100755.56;4994464;28;46931;-89
2022/01/30 03:48:51;;;;;;;;;77.75;57.00;;;;;1.93;73.17;100749.47;4978002;28;46354;-89
2022/01/30 03:51:17;;;;;;;;;73.50;53.75;;;;;1.91;73.06;100756.34;4978788;28;45225;-88
2022/01/30 03:53:42;;;;;;;;;68.75;52.75;;;;;1.86;72.90;100753.66;4993353;28;45665;-89
2022/01/30 03:56:09;;;;;;;;;77.25;55.75;;;;;1.85;73.25;100756.22;4993310;28;46794;-89
2022/01/30 03:58:34;;;;;;;;;71.00;53.00;;;;;1.83;73.34;100756.22;4994946;28;45342;-90
2022/01/30 04:01:00;;;;;;;;;72.25;53.50;;;;;1.84;73.36;100759.69;5002644;28;45188;-88
2022/01/30 04:03:25;;;;;;;;;78.00;57.25;;;;;1.84;72.96;100754.50;4999776;28;45288;-88
2022/01/30 04:05:51;;;;;;;;;62.33;51.00;;;;;1.83;73.51;100751.03;5000292;28;45221;-88
2022/01/30 04:08:17;;;;;;;;;72.50;54.00;;;;;1.85;73.40;100764.03;5001487;28;44725;-88
2022/01/30 04:10:43;;;;;;;;;73.50;53.50;;;;;1.84;73.23;100757.09;4999052;28;44735;-89
2022/01/30 04:13:09;;;;;;;;;76.75;54.75;;;;;1.83;73.33;100757.94;4988485;28;45641;-89
2022/01/30 04:15:35;;;;;;;;;72.00;56.75;;;;;1.83;73.44;100756.22;4993576;28;47765;-89
2022/01/30 04:18:01;;;;;;;;;67.00;51.50;;;;;1.88;73.78;100751.09;4993493;28;45797;-90
2022/01/30 04:20:28;;;;;;;;;71.00;53.50;;;;;1.91;73.43;100756.34;4976903;28;45289;-89
2022/01/30 04:22:53;;;;;;;;;72.75;56.75;;;;;1.92;73.82;100755.53;4993145;28;45366;-89
2022/01/30 04:25:19;;;;;;;;;77.00;53.75;;;;;1.93;73.76;100754.69;4976474;28;47772;-91
2022/01/30 04:27:44;;;;;;;;;67.50;52.50;;;;;1.94;73.14;100752.09;4976577;28;45278;-90
2022/01/30 04:30:11;;;;;;;;;75.00;52.33;;;;;1.93;72.86;100759.88;4993518;28;45395;-89
2022/01/30 04:32:42;;;;;;;;;62.25;48.50;;;;;1.90;73.32;100752.88;4979246;28;45229;-89
2022/01/30 04:35:25;;;;;;;;;72.50;53.50;;;;;1.90;72.96;100765.00;4983573;28;45545;-89
2022/01/30 05:01:54;;;;;;;;;72.75;55.25;;;;;1.57;73.77;100753.03;4976998;28;45397;-89
2022/01/30 05:09:26;;;;;;;;;73.75;54.75;;;;;1.50;73.59;100751.16;4976875;28;45407;-89
2022/01/30 05:11:52;;;;;;;;;66.50;50.50;;;;;1.48;73.52;100755.44;4977117;28;45280;-89
2022/01/30 05:14:21;;;;;;;;;69.25;52.75;;;;;1.45;73.74;100747.56;4992379;28;45439;-88
2022/01/30 05:16:46;;;;;;;;;70.25;51.00;;;;;1.45;74.13;100744.97;4991695;28;47201;-88
2022/01/30 05:19:13;;;;;;;;;77.00;56.25;;;;;1.46;74.07;100743.25;4975575;28;45493;-89
2022/01/30 05:21:39;;;;;;;;;72.25;53.00;;;;;1.47;74.19;100745.88;4975645;28;45529;-89
2022/01/30 05:24:05;;;;;;;;;72.00;55.75;;;;;1.48;74.12;100738.97;4975507;28;45570;-89
2022/01/30 05:26:32;;;;;;;;;73.00;55.00;;;;;1.47;74.11;100740.69;4991736;28;48101;-89
2022/01/30 05:28:57;;;;;;;;;69.75;54.00;;;;;1.51;74.13;100747.69;4991276;28;45547;-88
2022/01/30 05:31:23;;;;;;;;;68.25;50.25;;;;;1.53;74.06;100734.72;4975456;28;45292;-89
2022/01/30 05:33:49;;;;;;;;;66.33;48.67;;;;;1.53;74.29;100730.41;4991683;28;45509;-89
2022/01/30 05:36:14;;;;;;;;;69.50;53.25;;;;;1.52;74.26;100730.38;4991858;28;47930;-88
2022/01/30 05:38:40;;;;;;;;;76.67;54.67;;;;;1.51;74.36;100721.69;4976926;28;45379;-89
2022/01/30 05:41:06;;;;;;;;;77.00;53.50;;;;;1.50;74.39;100721.69;4976996;28;45332;-89
2022/01/30 05:43:33;;;;;;;;;74.25;54.00;;;;;1.49;74.58;100726.00;4978731;28;45566;-89
2022/01/30 05:46:14;;;;;;;;;67.50;55.00;;;;;1.48;74.33;100720.78;4983732;28;46882;-89
2022/01/30 05:48:40;;;;;;;;;74.00;51.75;;;;;1.45;74.84;100719.00;4962381;28;45266;-88
2022/01/30 05:51:06;;;;;;;;;70.50;54.25;;;;;1.45;74.63;100718.09;4991112;28;45245;-88
2022/01/30 05:53:32;;;;;;;;;72.00;56.75;;;;;1.43;74.74;100728.47;4978102;28;45320;-87
2022/01/30 05:55:57;;;;;;;;;73.50;57.75;;;;;1.42;74.89;100731.91;4975686;28;46450;-87
2022/01/30 05:58:23;;;;;;;;;76.50;51.75;;;;;1.40;74.61;100723.19;4974629;28;45346;-87
2022/01/30 06:00:48;;;;;;;;;72.75;53.00;;;;;1.37;74.71;100725.72;4991729;28;45527;-87
2022/01/30 06:03:14;;;;;;;;;70.25;52.00;;;;;1.33;74.60;100727.41;4977386;28;45340;-87
2022/01/30 06:05:40;;;;;;;;;72.00;54.25;;;;;1.34;75.05;100734.31;4969327;28;45275;-87
2022/01/30 06:08:12;;;;;;;;;69.75;53.25;;;;;1.34;74.91;100728.28;4991083;28;45506;-87
2022/01/30 06:10:38;;;;;;;;;64.50;53.25;;;;;1.31;74.78;100744.66;4988598;28;45324;-87
2022/01/30 06:13:03;;;;;;;;;66.00;48.75;;;;;1.28;75.04;100735.91;4990477;28;45348;-88
2022/01/30 06:15:29;;;;;;;;;62.25;51.75;;;;;1.25;75.24;100739.31;4988451;28;47754;-88
2022/01/30 06:17:54;;;;;;;;;66.75;52.50;;;;;1.23;75.20;100740.13;4990911;28;45361;-88
2022/01/30 06:20:20;;;;;;;;;71.75;56.25;;;;;1.21;75.13;100750.47;4991160;28;45781;-88
2022/01/30 06:22:45;;;;;;;;;58.00;45.00;;;;;1.19;75.38;100730.50;4974538;28;45505;-88
2022/01/30 06:25:10;;;;;;;;;67.25;49.75;;;;;1.19;75.21;100744.34;4975829;28;46574;-88
2022/01/30 06:27:37;;;;;;;;;66.50;53.50;;;;;1.20;75.48;100753.03;4975782;28;45491;-88
2022/01/30 06:30:04;;;;;;;;;69.00;51.50;;;;;1.18;75.47;100745.19;4988061;28;45344;-88
2022/01/30 06:32:30;;;;;;;;;68.25;43.75;;;;;1.14;75.75;100746.00;4979304;28;45272;-88
2022/01/30 06:34:56;;;;;;;;;68.00;54.00;;;;;1.11;75.54;100743.31;4993845;28;47195;-87
2022/01/30 06:37:21;;;;;;;;;71.00;54.00;;;;;1.09;75.80;100751.91;4994323;28;45372;-88
2022/01/30 06:39:47;;;;;;;;;65.00;47.00;;;;;1.07;75.60;100746.66;4994134;28;45424;-87
2022/01/30 06:42:12;;;;;;;;;66.50;52.75;;;;;1.04;75.45;100746.59;4993793;28;45537;-87
2022/01/30 06:44:38;;;;;;;;;69.75;50.50;;;;;1.00;76.31;100743.06;4978851;28;46559;-88
2022/01/30 06:47:05;;;;;;;;;67.25;54.50;;;;;0.99;76.19;100750.81;4977373;28;45483;-87
2022/01/30 06:49:30;;;;;;;;;62.25;45.50;;;;;0.95;75.91;100752.44;4994286;28;45492;-88
2022/01/30 06:51:56;;;;;;;;;63.33;49.00;;;;;0.94;76.30;100750.69;4977642;28;45550;-87
2022/01/30 06:54:21;;;;;;;;;70.25;54.00;;;;;0.93;76.36;100748.94;4993296;28;47655;-88
2022/01/30 06:56:47;;;;;;;;;67.00;51.25;;;;;0.93;76.63;100750.66;4994079;28;45305;-89
2022/01/30 06:59:12;;;;;;;;;69.25;54.25;;;;;0.91;76.21;100755.81;4993244;28;45593;-88
2022/01/30 07:01:37;;;;;;;;;69.50;53.75;;;;;0.91;76.57;100757.53;4994458;28;45586;-88
2022/01/30 07:04:03;;;;;;;;;66.00;51.50;;;;;0.91;75.91;100754.94;4993726;28;47117;-68
2022/01/30 07:06:30;;;;;;;;;71.50;51.00;;;;;0.97;76.73;100762.88;4978064;28;45524;-69
2022/01/30 07:08:55;;;;;;;;;76.50;52.00;;;;;1.04;76.30;100764.75;4977686;28;45379;-70
2022/01/30 07:11:21;;;;;;;;;73.00;57.25;;;;;1.05;76.55;100757.03;4977792;28;45373;-69
2022/01/30 07:13:46;;;;;;;;;73.25;52.00;;;;;1.07;76.51;100759.66;4977409;28;45433;-69
2022/01/30 07:16:12;;;;;;;;;66.67;52.33;;;;;1.10;76.36;100764.94;4977984;28;45371;-70
2022/01/30 07:18:38;;;;;;;;;68.50;50.50;;;;;1.15;76.12;100767.66;4973175;28;45365;-69
2022/01/30 07:21:04;;;;;;;;;73.33;52.67;;;;;1.17;76.09;100766.84;4975987;28;45601;-69
2022/01/30 07:23:30;;;;;;;;;72.75;52.75;;;;;1.19;75.89;100769.44;4977587;28;45604;-70
2022/01/30 07:25:56;;;;;;;;;67.50;52.50;;;;;1.19;75.91;100766.84;4977202;28;45506;-71
2022/01/30 07:28:21;;;;;;;;;67.25;53.50;;;;;1.21;76.13;100762.56;4976862;28;45438;-70
2022/01/30 07:30:47;;;;;;;;;74.25;54.75;;;;;1.23;76.18;100756.59;4976976;28;45438;-70
2022/01/30 07:33:12;;;;;;;;;65.33;49.33;;;;;1.25;75.91;100752.31;4976834;28;46294;-69
2022/01/30 07:35:42;;;;;;;;;51.67;40.00;;;;;1.28;76.27;100765.38;4976839;28;45687;-70
2022/01/30 07:38:08;;;;;;;;;67.67;45.67;;;;;1.31;76.37;100761.97;4977585;28;45284;-70
2022/01/30 07:40:34;;;;;;;;;63.00;47.50;;;;;1.37;76.10;100751.69;4975474;28;45392;-70
2022/01/30 07:43:00;;;;;;;;;72.33;52.00;;;;;1.40;75.88;100760.44;4976674;28;46233;-70
2022/01/30 07:45:26;;;;;;;;;64.00;49.00;;;;;1.41;75.88;100758.72;4977145;28;45462;-69
2022/01/30 07:47:51;;;;;;;;;67.25;49.50;;;;;1.43;76.01;100757.06;4975592;28;45458;-69
2022/01/30 07:50:17;;;;;;;;;59.33;46.33;;;;;1.45;75.95;100767.47;4976767;28;45642;-70
2022/01/30 07:52:42;;;;;;;;;65.00;50.67;;;;;1.46;75.82;100757.13;4977022;28;45430;-70
2022/01/30 07:55:08;;;;;;;;;67.33;52.67;;;;;1.49;75.74;100761.53;4992114;28;45638;-69
2022/01/30 07:57:34;;;;;;;;;66.00;48.00;;;;;1.52;75.66;100764.16;4976702;28;45355;-70
2022/01/30 07:59:59;;;;;;;;;64.00;49.33;;;;;1.55;75.46;100765.13;4975395;28;45395;-69
2022/01/30 08:02:25;;;;;;;;;67.00;49.67;;;;;1.55;75.56;100759.03;4976874;28;46080;-69
2022/01/30 08:04:52;;;;;;;;;64.67;49.00;;;;;1.57;75.36;100755.63;4974436;28;45485;-69
2022/01/30 08:07:18;;;;;;;;;64.67;48.33;;;;;1.59;75.50;100755.66;4976760;28;45363;-69
2022/01/30 08:09:43;;;;;;;;;58.67;40.67;;;;;1.60;75.45;100763.50;4976627;28;45289;-69
2022/01/30 08:12:10;;;;;;;;;66.67;50.00;;;;;1.64;75.54;100762.75;4973424;28;46516;-69
2022/01/30 08:14:35;;;;;;;;;53.00;43.33;;;;;1.66;75.10;100760.19;4976422;28;45383;-69
2022/01/30 08:17:01;;;;;;;;;61.33;47.33;;;;;1.67;75.35;100756.72;4976041;28;45793;-69
2022/01/30 08:19:26;;;;;;;;;65.67;47.67;;;;;1.69;74.99;100761.09;4976196;28;45522;-69
2022/01/30 08:21:52;;;;;;;;;57.67;47.33;;;;;1.74;75.14;100751.69;4990053;28;45782;-70
2022/01/30 08:24:19;;;;;;;;;60.67;48.00;;;;;1.80;75.03;100763.06;4976202;28;45606;-70
2022/01/30 08:26:45;;;;;;;;;66.25;49.75;;;;;1.83;74.99;100747.53;4976145;28;45476;-70
2022/01/30 08:29:11;;;;;;;;;66.00;51.33;;;;;1.85;74.92;100749.28;4975883;28;45519;-69
2022/01/30 08:31:36;;;;;;;;;60.67;48.33;;;;;1.84;74.79;100738.91;4975898;28;46174;-70
2022/01/30 08:34:01;;;;;;;;;60.00;41.00;;;;;1.86;75.12;100748.44;4975459;28;45376;-70
2022/01/30 08:36:27;;;;;;;;;63.75;48.00;;;;;1.89;74.90;100747.66;4976110;28;45383;-69
2022/01/30 08:38:52;;;;;;;;;67.67;51.67;;;;;1.92;74.71;100743.41;4976043;28;45578;-70
2022/01/30 08:41:17;;;;;;;;;68.67;52.33;;;;;1.95;75.05;100750.38;4976191;28;45355;-69
2022/01/30 08:43:43;;;;;;;;;60.00;44.67;;;;;1.96;74.78;100747.81;4975894;28;45340;-69
2022/01/30 08:46:08;;;;;;;;;61.00;43.67;;;;;1.98;75.09;100742.66;4975510;28;45396;-70
2022/01/30 08:48:34;;;;;;;;;68.00;51.67;;;;;1.99;75.02;100742.69;4976150;28;45664;-70
2022/01/30 08:50:59;;;;;;;;;61.67;48.33;;;;;2.02;74.75;100753.13;4975852;28;45438;-69
2022/01/30 08:53:26;;;;;;;;;69.00;50.67;;;;;2.05;74.81;100740.19;4973746;28;45346;-69
2022/01/30 08:55:51;;;;;;;;;65.00;51.00;;;;;2.10;74.94;100748.97;4973783;28;45436;-69
2022/01/30 08:58:17;;;;;;;;;53.00;40.33;;;;;2.14;74.53;100736.91;4975074;28;45438;-69
2022/01/30 09:00:44;;;;;;;;;72.00;55.00;;;;;2.19;74.75;100743.06;4974100;28;46628;-69
2022/01/30 09:03:10;;;;;;;;;68.67;49.67;;;;;2.23;74.44;100738.78;4973773;28;45424;-69
2022/01/30 09:05:36;;;;;;;;;71.67;55.33;;;;;2.25;74.26;100743.19;4988463;28;45372;-69
2022/01/30 09:08:07;;;;;;;;;74.67;56.00;;;;;2.29;74.41;100752.81;4974974;28;45545;-69
2022/01/30 09:10:38;;;;;;;;;70.33;52.33;;;;;2.36;74.79;100751.19;4975546;28;46035;-69
2022/01/30 09:13:05;;;;;;;;;67.00;52.75;;;;;2.41;74.35;100750.44;4975293;28;45334;-69
2022/01/30 09:15:37;;;;;;;;;69.00;49.33;;;;;2.45;73.87;100744.44;4990781;28;45400;-69
2022/01/30 09:18:08;;;;;;;;;68.33;50.00;;;;;2.47;73.84;100751.41;4973772;28;45257;-69
2022/01/30 09:20:33;;;;;;;;;65.33;49.67;;;;;2.48;73.93;100754.03;4975654;28;45485;-69
2022/01/30 09:22:59;;;;;;;;;66.00;49.67;;;;;2.52;73.84;100752.34;4989967;28;45469;-69
2022/01/30 09:25:24;;;;;;;;;64.00;51.00;;;;;2.54;73.53;100756.75;4974679;28;45861;-69
2022/01/30 09:27:49;;;;;;;;;68.33;52.00;;;;;2.57;73.68;100761.13;4990186;28;45756;-69
2022/01/30 09:30:15;;;;;;;;;73.25;54.00;;;;;2.59;73.57;100755.09;4975339;28;46502;-69
2022/01/30 09:32:41;;;;;;;;;64.33;46.00;;;;;2.64;73.59;100758.69;4974997;28;45463;-70
2022/01/30 09:35:07;;;;;;;;;62.00;46.00;;;;;2.68;73.62;100757.84;4974696;28;45272;-70
2022/01/30 09:37:33;;;;;;;;;65.00;48.67;;;;;2.75;73.15;100751.94;4975703;28;45279;-69
2022/01/30 09:39:58;;;;;;;;;67.67;51.67;;;;;2.83;73.30;100759.88;4975045;28;46545;-68
2022/01/30 09:42:24;;;;;;;;;69.00;51.67;;;;;2.87;72.90;100755.59;4973540;28;45339;-70
2022/01/30 09:44:50;;;;;;;;;73.75;56.50;;;;;2.91;72.64;100755.66;4974960;28;45518;-71
2022/01/30 09:47:17;;;;;;;;;64.00;50.00;;;;;2.96;72.68;100754.03;4974752;28;45493;-70
2022/01/30 09:49:52;;;;;;;;;62.67;48.33;;;;;3.08;72.90;100753.34;4975048;28;46095;-71
2022/01/30 09:52:19;;;;;;;;;67.00;51.33;;;;;3.22;72.58;100754.44;4973670;28;45479;-70
2022/01/30 09:54:47;;;;;;;;;62.67;44.33;;;;;3.31;71.85;100748.50;4972580;28;45359;-70
2022/01/30 09:57:13;;;;;;;;;66.00;49.00;;;;;3.34;72.11;100758.97;4974157;28;45380;-70
2022/01/30 09:59:38;;;;;;;;;62.33;49.33;;;;;3.39;71.84;100749.47;4974453;28;46105;-70
2022/01/30 10:02:06;;;;;;;;;66.33;48.33;;;;;3.44;71.38;100746.09;4990181;28;45774;-70
2022/01/30 10:04:32;;;;;;;;;73.00;52.00;;;;;3.48;71.32;100744.41;4976260;28;45401;-68
2022/01/30 10:07:02;;;;;;;;;60.67;45.67;;;;;3.49;71.08;100752.25;4978441;28;45407;-68
2022/01/30 10:09:31;;;;;;;;;74.00;50.67;;;;;3.52;71.03;100746.19;4977988;28;45316;-68
2022/01/30 10:12:16;;;;;;;;;70.67;51.00;;;;;3.56;70.91;100737.56;4977901;28;45465;-68
2022/01/30 10:15:00;;;;;;;;;65.33;46.33;;;;;3.60;70.60;100744.59;4993123;28;45555;-69
2022/01/30 10:17:27;;;;;;;;;63.00;49.00;;;;;3.68;70.82;100744.72;4977372;28;45406;-68
2022/01/30 10:20:00;;;;;;;;;68.00;48.33;;;;;3.75;70.65;100736.97;4977428;28;45452;-69
2022/01/30 10:22:25;;;;;;;;;62.00;46.00;;;;;3.81;70.18;100730.97;4977977;28;45405;-68
2022/01/30 10:24:51;;;;;;;;;65.33;49.00;;;;;3.86;70.11;100729.28;4977943;28;45379;-69
2022/01/30 10:27:19;;;;;;;;;62.67;50.33;;;;;3.93;69.58;100727.63;4977436;28;45509;-69
2022/01/30 10:29:45;;;;;;;;;57.00;44.67;;;;;3.97;69.54;100726.81;4977719;28;45769;-68
2022/01/30 10:32:11;;;;;;;;;63.67;49.33;;;;;4.00;69.80;100732.06;4977642;28;45368;-69
2022/01/30 10:34:38;;;;;;;;;63.33;51.67;;;;;3.93;69.52;100725.00;4976715;28;45407;-69
2022/01/30 10:37:14;;;;;;;;;66.00;50.67;;;;;3.93;69.70;100722.41;4992803;28;45486;-69
2022/01/30 10:39:52;;;;;;;;;72.00;52.67;;;;;3.98;69.70;100719.00;4977448;28;46104;-69
2022/01/30 10:42:40;;;;;;;;;72.33;55.33;;;;;4.01;69.15;100716.44;4976835;28;45416;-69
2022/01/30 10:45:10;;;;;;;;;66.00;51.00;;;;;3.95;69.20;100713.75;4977489;28;45320;-69
2022/01/30 10:47:37;;;;;;;;;68.67;50.33;;;;;3.88;69.42;100701.47;4976139;28;45368;-71
2022/01/30 10:50:09;;;;;;;;;73.75;55.75;;;;;3.92;69.68;100705.00;4977390;28;45418;-68
2022/01/30 10:52:50;;;;;;;;;68.67;54.33;;;;;4.01;69.58;100705.13;4976074;28;45646;-69
2022/01/30 10:55:16;;;;;;;;;62.67;48.33;;;;;4.02;69.08;100688.63;4965610;28;45418;-69
2022/01/30 10:57:45;;;;;;;;;68.67;51.67;;;;;4.01;69.31;100687.75;4977069;28;45434;-70
2022/01/30 11:00:10;;;;;;;;;64.33;48.67;;;;;4.01;69.17;100685.13;4977009;28;46293;-68
2022/01/30 11:02:39;;;;;;;;;67.67;51.00;;;;;4.01;69.23;100682.53;4977211;28;45370;-69
2022/01/30 11:05:10;;;;;;;;;57.33;46.00;;;;;3.99;69.31;100685.97;4976661;28;45423;-69
2022/01/30 11:07:36;;;;;;;;;65.67;50.67;;;;;3.99;69.26;100678.13;4992186;28;45472;-68
2022/01/30 11:10:27;;;;;;;;;69.67;53.00;;;;;3.97;69.11;100672.91;4977017;28;45729;-67
2022/01/30 11:12:57;;;;;;;;;71.25;55.00;;;;;3.96;69.30;100665.94;4975934;28;45383;-67
2022/01/30 11:17:57;;;;;;;;;69.33;54.67;;;;;3.96;69.12;100659.84;4976831;28;45450;-67
2022/01/30 11:20:24;;;;;;;;;68.67;53.67;;;;;3.95;69.34;100656.34;4976817;28;46205;-67
2022/01/30 11:22:53;;;;;;;;;66.33;48.67;;;;;4.01;69.26;100647.72;4958861;28;45577;-67
2022/01/30 11:25:21;;;;;;;;;67.33;49.67;;;;;4.04;68.93;100646.00;4976626;28;45455;-67
2022/01/30 11:27:49;;;;;;;;;70.00;52.67;;;;;4.06;68.84;100636.47;4974815;28;45372;-67
2022/01/30 11:30:17;;;;;;;;;64.00;50.33;;;;;4.05;68.98;100637.31;4976707;28;45438;-67
2022/01/30 11:32:43;;;;;;;;;67.00;50.00;;;;;4.08;68.88;100639.09;4976272;28;45412;-67
2022/01/30 11:35:09;;;;;;;;;67.00;52.67;;;;;4.09;68.88;100630.41;4975944;28;45366;-65
2022/01/30 11:37:37;;;;;;;;;68.00;51.67;;;;;4.14;69.00;100626.09;4976697;28;46203;-68
2022/01/30 11:40:12;;;;;;;;;62.33;44.67;;;;;4.21;68.70;100617.47;4991766;28;45690;-67
2022/01/30 11:42:40;;;;;;;;;64.67;48.67;;;;;4.23;68.56;100618.34;4974677;28;45467;-68
2022/01/30 11:45:08;;;;;;;;;59.33;44.67;;;;;4.25;68.60;100611.41;4988419;28;45324;-67
2022/01/30 11:47:55;;;;;;;;;67.67;54.67;;;;;4.26;68.45;100601.84;4974334;28;45514;-68
2022/01/30 11:50:26;;;;;;;;;68.33;50.67;;;;;4.32;68.66;100594.09;4976422;28;46006;-68
2022/01/30 11:53:02;;;;;;;;;67.00;52.33;;;;;4.38;68.63;100591.50;4942177;28;45614;-68
2022/01/30 11:55:50;;;;;;;;;66.00;49.67;;;;;4.45;68.49;100583.75;4957071;28;45401;-68
2022/01/30 11:58:38;;;;;;;;;66.33;49.00;;;;;4.51;68.23;100572.50;4957031;28;45526;-68
2022/01/30 12:01:24;;;;;;;;;67.33;50.33;;;;;4.47;67.96;100563.75;4956499;28;46548;-68
2022/01/30 12:04:04;;;;;;;;;65.67;50.33;;;;;4.44;67.93;100553.28;4957206;28;45390;-68
2022/01/30 12:06:38;;;;;;;;;68.67;52.67;;;;;4.49;67.85;100550.72;4957223;28;45454;-68
2022/01/30 12:09:17;;;;;;;;;64.67;48.67;;;;;4.49;68.15;100541.13;4957031;28;45592;-68
2022/01/30 12:11:47;;;;;;;;;63.33;48.33;;;;;4.52;68.05;100532.47;4956297;28;45482;-68
2022/01/30 12:14:22;;;;;;;;;67.67;53.00;;;;;4.55;67.62;100522.88;4955935;28;45363;-68
2022/01/30 12:16:57;;;;;;;;;70.00;48.00;;;;;4.59;67.76;100523.78;4971859;28;45461;-68
2022/01/30 12:19:37;;;;;;;;;61.33;48.33;;;;;4.63;67.73;100516.84;4955504;28;45438;-69